ENNE

Norne Fpso Oilp

Norne Fpso Oilp, Norway
METAR ENNE 201650Z AUTO 18041KT 9000NDV BKN021/// BKN060/// 09/07 Q1005 W///S5
Observed Flight Rules
Oct-20 @ 16:50 UTC (26 minutes ago)
Wind Clouds
180° at 41 knots
  • Broken at 2,100' AGL
  • Broken at 6,000' AGL
Temperatures Readings
Current 9°C / 48°F
Dewpoint 7°C / 45°F
Humidity 87%
Altimeter 29.68" Hg
Pressure 1005 hPa
Elevation 10
METAR ENNE 201650Z AUTO 18041KT 9000NDV BKN021/// BKN060/// 09/07 Q1005 W///S5
Observed Flight Rules
Oct-20 @ 16:50 UTC
(26 minutes ago)
Wind
180° at 41 knots
Clouds
  • Broken at 2,100' AGL
  • Broken at 6,000' AGL
Temperature Dewpoint
9°C / 48°F 7°C / 45°F
Humidity Altimeter Pressure
87% 29.68" Hg 1005 hPa